Time;durP1;ratioP1;P1;durP2;ratioP2;P2;SDS_P1;SDS_P2;PMS_P1;PMS_P2;Temp;Humidity;BMP_temperature;BMP_pressure;BME280_temperature;BME280_humidity;BME280_pressure;Samples;Min_cycle;Max_cycle;Signal;HPM_P1;HPM_P2
2022/12/16 00:02:06;;;;;;;102.27;43.17;;;;;;;;;;5035815;28;20204;-44
2022/12/16 00:04:33;;;;;;;101.07;41.93;;;;;;;;;;5035576;28;20525;-44
2022/12/16 00:07:00;;;;;;;109.47;45.33;;;;;;;;;;5035714;28;20619;-44
2022/12/16 00:09:27;;;;;;;105.40;45.13;;;;;;;;;;5035668;28;20205;-44
2022/12/16 00:11:54;;;;;;;122.83;49.13;;;;;;;;;;5035478;28;20209;-44
2022/12/16 00:14:21;;;;;;;124.17;49.13;;;;;;;;;;5035584;28;20525;-45
2022/12/16 00:16:48;;;;;;;107.27;46.83;;;;;;;;;;5035397;28;20205;-44
2022/12/16 00:19:16;;;;;;;114.23;48.63;;;;;;;;;;5035622;28;20306;-44
2022/12/16 00:21:43;;;;;;;116.17;47.10;;;;;;;;;;5036036;28;20286;-44
2022/12/16 00:24:10;;;;;;;107.90;46.77;;;;;;;;;;5035472;28;20205;-45
2022/12/16 00:26:37;;;;;;;106.97;44.50;;;;;;;;;;5035087;28;20336;-44
2022/12/16 00:29:05;;;;;;;114.13;46.53;;;;;;;;;;5035454;28;20200;-44
2022/12/16 00:31:32;;;;;;;111.13;46.37;;;;;;;;;;5035030;28;20212;-45
2022/12/16 00:33:59;;;;;;;105.53;45.00;;;;;;;;;;5035733;28;20218;-45
2022/12/16 00:36:26;;;;;;;107.77;44.87;;;;;;;;;;5035309;28;20221;-44
2022/12/16 00:38:53;;;;;;;98.93;41.80;;;;;;;;;;5035577;28;20302;-44
2022/12/16 00:41:21;;;;;;;96.23;39.70;;;;;;;;;;5035019;28;20285;-45
2022/12/16 00:43:48;;;;;;;93.93;40.27;;;;;;;;;;5034982;28;20201;-44
2022/12/16 00:46:16;;;;;;;93.43;40.07;;;;;;;;;;5034792;28;20228;-45
2022/12/16 00:48:43;;;;;;;90.53;40.97;;;;;;;;;;5035541;28;20214;-45
2022/12/16 00:51:10;;;;;;;93.77;41.07;;;;;;;;;;5035126;28;20218;-44
2022/12/16 00:53:37;;;;;;;90.33;38.63;;;;;;;;;;5034874;28;20213;-45
2022/12/16 00:56:06;;;;;;;93.43;39.77;;;;;;;;;;5034886;28;20663;-44
2022/12/16 00:58:35;;;;;;;83.30;37.27;;;;;;;;;;5034896;28;20304;-45
2022/12/16 01:01:03;;;;;;;95.07;39.10;;;;;;;;;;5034956;28;20208;-45
2022/12/16 01:03:31;;;;;;;93.47;39.30;;;;;;;;;;5035110;28;20285;-44
2022/12/16 01:05:58;;;;;;;87.13;36.57;;;;;;;;;;5034142;28;20228;-45
2022/12/16 01:08:25;;;;;;;87.43;38.20;;;;;;;;;;5034643;28;20238;-44
2022/12/16 01:10:55;;;;;;;87.30;36.57;;;;;;;;;;5034393;28;20551;-44
2022/12/16 01:13:23;;;;;;;78.40;35.20;;;;;;;;;;5034627;28;20709;-45
2022/12/16 01:15:51;;;;;;;83.03;37.13;;;;;;;;;;5035103;28;20201;-44
2022/12/16 01:18:18;;;;;;;84.57;37.63;;;;;;;;;;5034519;28;20260;-44
2022/12/16 01:20:45;;;;;;;74.87;33.67;;;;;;;;;;5034509;28;20208;-44
2022/12/16 01:23:12;;;;;;;89.77;37.90;;;;;;;;;;5034926;28;20315;-45
2022/12/16 01:25:39;;;;;;;84.80;37.33;;;;;;;;;;5033993;28;20581;-45
2022/12/16 01:28:06;;;;;;;85.47;37.77;;;;;;;;;;5034344;28;20253;-44
2022/12/16 01:30:34;;;;;;;87.97;37.27;;;;;;;;;;5034388;28;20547;-44
2022/12/16 01:33:01;;;;;;;80.67;34.83;;;;;;;;;;5034596;28;20290;-44
2022/12/16 01:35:28;;;;;;;82.13;34.93;;;;;;;;;;5034514;28;20271;-45
2022/12/16 01:38:15;;;;;;;76.37;33.23;;;;;;;;;;5034223;28;20271;-45
2022/12/16 01:40:42;;;;;;;80.20;34.67;;;;;;;;;;5034546;28;20339;-45
2022/12/16 01:43:11;;;;;;;79.80;34.03;;;;;;;;;;5034802;28;20282;-44
2022/12/16 01:45:39;;;;;;;80.90;35.23;;;;;;;;;;5034342;28;20232;-44
2022/12/16 01:48:29;;;;;;;75.43;36.13;;;;;;;;;;5034497;28;20211;-44
2022/12/16 01:51:02;;;;;;;74.00;34.47;;;;;;;;;;5033853;28;20330;-44
2022/12/16 01:53:29;;;;;;;78.90;35.33;;;;;;;;;;5034923;28;20228;-44
2022/12/16 01:55:58;;;;;;;87.60;35.87;;;;;;;;;;5034214;28;20698;-45
2022/12/16 01:58:27;;;;;;;75.53;33.70;;;;;;;;;;5033578;28;20212;-44
2022/12/16 02:00:55;;;;;;;79.90;35.47;;;;;;;;;;5033378;28;20204;-47
2022/12/16 02:03:22;;;;;;;78.20;33.67;;;;;;;;;;5033376;28;20218;-46
2022/12/16 02:05:50;;;;;;;83.80;37.30;;;;;;;;;;5033473;28;20263;-45
2022/12/16 02:08:18;;;;;;;82.00;37.17;;;;;;;;;;5034134;28;20270;-45
2022/12/16 02:10:59;;;;;;;80.63;36.37;;;;;;;;;;5034085;28;20268;-45
2022/12/16 02:13:38;;;;;;;80.93;35.30;;;;;;;;;;5034277;28;20612;-44
2022/12/16 02:16:15;;;;;;;80.43;35.40;;;;;;;;;;5034940;28;20204;-43
2022/12/16 02:19:37;;;;;;;82.47;35.20;;;;;;;;;;5034894;28;20241;-43
2022/12/16 02:22:38;;;;;;;76.50;35.10;;;;;;;;;;5016415;28;20206;-44
2022/12/16 02:25:21;;;;;;;82.83;35.13;;;;;;;;;;5015898;28;20201;-44
2022/12/16 02:28:17;;;;;;;83.20;36.90;;;;;;;;;;5036195;28;20220;-44
2022/12/16 02:30:59;;;;;;;85.70;37.17;;;;;;;;;;5034550;28;20217;-43
2022/12/16 02:33:29;;;;;;;75.57;32.50;;;;;;;;;;5036751;28;20316;-44
2022/12/16 02:35:57;;;;;;;78.20;33.07;;;;;;;;;;5037626;28;20204;-43
2022/12/16 02:38:32;;;;;;;79.27;34.67;;;;;;;;;;5037034;28;20209;-43
2022/12/16 02:41:02;;;;;;;79.20;35.67;;;;;;;;;;5036412;28;20231;-44
2022/12/16 02:43:52;;;;;;;83.47;36.00;;;;;;;;;;5036633;28;20212;-43
2022/12/16 02:46:22;;;;;;;72.73;33.10;;;;;;;;;;5037031;28;20600;-43
2022/12/16 02:48:49;;;;;;;72.93;33.53;;;;;;;;;;5037365;28;20690;-43
2022/12/16 02:51:16;;;;;;;73.93;33.07;;;;;;;;;;5037315;28;20279;-43
2022/12/16 02:53:44;;;;;;;77.10;32.77;;;;;;;;;;5037187;28;20200;-44
2022/12/16 02:56:36;;;;;;;76.90;32.53;;;;;;;;;;5036986;28;20220;-43
2022/12/16 02:59:41;;;;;;;78.80;32.13;;;;;;;;;;5037116;28;20204;-43
2022/12/16 03:02:13;;;;;;;69.20;30.57;;;;;;;;;;5036855;28;20277;-44
2022/12/16 03:04:51;;;;;;;67.40;31.87;;;;;;;;;;5036817;28;20205;-43
2022/12/16 03:07:20;;;;;;;71.20;32.83;;;;;;;;;;5036066;28;20212;-44
2022/12/16 03:09:49;;;;;;;74.93;32.93;;;;;;;;;;5035806;28;20278;-44
2022/12/16 03:12:17;;;;;;;80.13;34.70;;;;;;;;;;5036819;28;20259;-44
2022/12/16 03:14:47;;;;;;;71.70;31.03;;;;;;;;;;5035994;28;20215;-44
2022/12/16 03:17:15;;;;;;;73.87;32.00;;;;;;;;;;5036811;28;20196;-44
2022/12/16 03:19:48;;;;;;;68.97;31.27;;;;;;;;;;5036281;28;20247;-44
2022/12/16 03:22:21;;;;;;;72.87;31.17;;;;;;;;;;5035743;28;20209;-45
2022/12/16 03:24:48;;;;;;;69.47;31.03;;;;;;;;;;5035742;28;20223;-44
2022/12/16 03:27:20;;;;;;;71.03;34.03;;;;;;;;;;5036132;28;20589;-44
2022/12/16 03:29:56;;;;;;;69.87;33.07;;;;;;;;;;5035483;28;20545;-44
2022/12/16 03:32:43;;;;;;;68.53;31.07;;;;;;;;;;5036782;28;20192;-45
2022/12/16 03:36:06;;;;;;;70.07;32.20;;;;;;;;;;5035538;28;20204;-45
2022/12/16 03:38:33;;;;;;;73.63;32.03;;;;;;;;;;5014642;28;20206;-44
2022/12/16 03:41:01;;;;;;;68.37;31.40;;;;;;;;;;4998555;28;20287;-44
2022/12/16 03:43:28;;;;;;;69.93;32.03;;;;;;;;;;5014726;28;20238;-45
2022/12/16 03:46:01;;;;;;;74.13;31.80;;;;;;;;;;5014283;28;20714;-44
2022/12/16 03:48:29;;;;;;;70.30;31.20;;;;;;;;;;4998535;28;20196;-44
2022/12/16 03:50:57;;;;;;;70.40;31.07;;;;;;;;;;5014217;28;20566;-44
2022/12/16 03:53:25;;;;;;;67.37;29.97;;;;;;;;;;5014185;28;20250;-45
2022/12/16 03:55:53;;;;;;;87.13;40.43;;;;;;;;;;5014772;28;20213;-46
2022/12/16 03:58:20;;;;;;;70.00;32.10;;;;;;;;;;5034298;28;20204;-45
2022/12/16 04:00:49;;;;;;;75.07;33.27;;;;;;;;;;5034429;28;20314;-44
2022/12/16 04:03:17;;;;;;;73.10;30.37;;;;;;;;;;5034410;28;20201;-45
2022/12/16 04:05:44;;;;;;;71.95;30.20;;;;;;;;;;5033891;28;20205;-44
2022/12/16 04:08:11;;;;;;;80.10;34.40;;;;;;;;;;5017703;28;20340;-43
2022/12/16 04:24:34;;;;;;;77.73;33.43;;;;;;;;;;5055070;28;20654;-43
2022/12/16 04:34:24;;;;;;;79.87;33.43;;;;;;;;;;5054550;28;20330;-43
